Ardmore, Alabama
Current Conditions -  °F | °C
As of 7:15 AM on Saturday 22 Nov 2014 (Local Time) from KFYM Reporting Station
Clear Clear  
Wind Chill: 31°   Ceiling: Unl
Heat Index: 39°   Visibility: 10mi
Dew Point: 28°   Wind: 15mph
Humidity: 65%   Direction: 360°N
Pressure: 30.38"   Gusts: 38mph
Location:  34.99°N, 86.85°W
Report Text: KFYM 221315Z AUTO 36013G33KT 10SM CLR 04/M02 A3038 RMK
Loading
Personal Weather Stations






























Interactive Weather Map New forecast layout! Learn more

10-Day Weather Forecast

Advertisements
Track Severe Weather on mobile